sensor_id;sensor_type;location;lat;lon;timestamp;temperature;humidity
50907;DHT22;36882;27.680;85.304;2022-07-01T00:01:11;25.00;98.70
50907;DHT22;36882;27.680;85.304;2022-07-01T00:03:42;25.10;98.50
50907;DHT22;36882;27.680;85.304;2022-07-01T00:06:19;25.10;98.40
50907;DHT22;36882;27.680;85.304;2022-07-01T00:08:49;25.10;98.50
50907;DHT22;36882;27.680;85.304;2022-07-01T00:11:21;25.20;98.20
50907;DHT22;36882;27.680;85.304;2022-07-01T00:13:51;25.20;98.10
50907;DHT22;36882;27.680;85.304;2022-07-01T00:16:22;25.20;98.30
50907;DHT22;36882;27.680;85.304;2022-07-01T00:18:53;25.30;98.20
50907;DHT22;36882;27.680;85.304;2022-07-01T00:21:23;25.30;98.10
50907;DHT22;36882;27.680;85.304;2022-07-01T00:23:54;25.40;98.10
50907;DHT22;36882;27.680;85.304;2022-07-01T00:26:25;25.40;97.90
50907;DHT22;36882;27.680;85.304;2022-07-01T00:29:11;25.50;98.00
50907;DHT22;36882;27.680;85.304;2022-07-01T00:31:42;25.50;97.80
50907;DHT22;36882;27.680;85.304;2022-07-01T00:34:12;25.50;97.60
50907;DHT22;36882;27.680;85.304;2022-07-01T00:36:43;25.60;97.60
50907;DHT22;36882;27.680;85.304;2022-07-01T00:39:13;25.70;97.90
50907;DHT22;36882;27.680;85.304;2022-07-01T00:41:44;25.70;97.50
50907;DHT22;36882;27.680;85.304;2022-07-01T00:44:18;25.80;97.20
50907;DHT22;36882;27.680;85.304;2022-07-01T00:46:50;25.90;97.20
50907;DHT22;36882;27.680;85.304;2022-07-01T00:49:22;26.00;96.90
50907;DHT22;36882;27.680;85.304;2022-07-01T00:51:54;26.00;97.00
50907;DHT22;36882;27.680;85.304;2022-07-01T00:54:26;26.20;96.80
50907;DHT22;36882;27.680;85.304;2022-07-01T00:56:57;26.30;96.80
50907;DHT22;36882;27.680;85.304;2022-07-01T00:59:27;26.60;96.40
50907;DHT22;36882;27.680;85.304;2022-07-01T01:02:01;26.80;96.00
50907;DHT22;36882;27.680;85.304;2022-07-01T01:04:32;27.00;95.60
50907;DHT22;36882;27.680;85.304;2022-07-01T01:07:03;27.20;95.40
50907;DHT22;36882;27.680;85.304;2022-07-01T01:09:34;27.50;95.00
50907;DHT22;36882;27.680;85.304;2022-07-01T01:12:05;27.70;94.50
50907;DHT22;36882;27.680;85.304;2022-07-01T01:14:52;27.90;94.20
50907;DHT22;36882;27.680;85.304;2022-07-01T01:17:23;28.20;94.10
50907;DHT22;36882;27.680;85.304;2022-07-01T01:19:54;28.40;93.70
50907;DHT22;36882;27.680;85.304;2022-07-01T01:22:25;28.60;93.50
50907;DHT22;36882;27.680;85.304;2022-07-01T01:24:58;28.90;93.00
50907;DHT22;36882;27.680;85.304;2022-07-01T01:27:44;29.10;92.60
50907;DHT22;36882;27.680;85.304;2022-07-01T01:30:15;29.20;92.20
50907;DHT22;36882;27.680;85.304;2022-07-01T01:32:45;29.40;91.90
50907;DHT22;36882;27.680;85.304;2022-07-01T01:35:16;29.50;91.80
50907;DHT22;36882;27.680;85.304;2022-07-01T01:37:47;29.40;91.70
50907;DHT22;36882;27.680;85.304;2022-07-01T01:40:18;29.50;91.90
50907;DHT22;36882;27.680;85.304;2022-07-01T01:42:49;29.50;91.80
50907;DHT22;36882;27.680;85.304;2022-07-01T01:45:19;29.60;91.50
50907;DHT22;36882;27.680;85.304;2022-07-01T01:47:50;29.60;91.90
50907;DHT22;36882;27.680;85.304;2022-07-01T01:50:21;29.80;91.60
50907;DHT22;36882;27.680;85.304;2022-07-01T01:52:52;29.90;91.90
50907;DHT22;36882;27.680;85.304;2022-07-01T01:55:22;29.80;91.10
50907;DHT22;36882;27.680;85.304;2022-07-01T01:57:53;29.90;91.10
50907;DHT22;36882;27.680;85.304;2022-07-01T02:00:24;30.00;91.10
50907;DHT22;36882;27.680;85.304;2022-07-01T02:03:10;30.20;91.10
50907;DHT22;36882;27.680;85.304;2022-07-01T02:05:41;30.40;91.10
50907;DHT22;36882;27.680;85.304;2022-07-01T02:08:14;30.60;90.00
50907;DHT22;36882;27.680;85.304;2022-07-01T02:10:44;30.80;90.50
50907;DHT22;36882;27.680;85.304;2022-07-01T02:13:19;30.90;89.70
50907;DHT22;36882;27.680;85.304;2022-07-01T02:15:50;31.10;88.10
50907;DHT22;36882;27.680;85.304;2022-07-01T02:18:21;31.10;88.60
50907;DHT22;36882;27.680;85.304;2022-07-01T02:20:52;31.20;88.20
50907;DHT22;36882;27.680;85.304;2022-07-01T02:23:22;31.30;87.30
50907;DHT22;36882;27.680;85.304;2022-07-01T02:25:53;31.30;87.30
50907;DHT22;36882;27.680;85.304;2022-07-01T02:28:24;31.30;87.60
50907;DHT22;36882;27.680;85.304;2022-07-01T02:31:10;31.50;87.30
50907;DHT22;36882;27.680;85.304;2022-07-01T02:33:41;31.60;86.50
50907;DHT22;36882;27.680;85.304;2022-07-01T02:36:12;31.80;85.60
50907;DHT22;36882;27.680;85.304;2022-07-01T02:38:43;31.80;86.20
50907;DHT22;36882;27.680;85.304;2022-07-01T02:41:13;31.80;85.00
50907;DHT22;36882;27.680;85.304;2022-07-01T02:43:44;31.50;84.40
50907;DHT22;36882;27.680;85.304;2022-07-01T02:46:15;31.20;85.80
50907;DHT22;36882;27.680;85.304;2022-07-01T02:48:46;31.20;86.20
50907;DHT22;36882;27.680;85.304;2022-07-01T02:51:16;31.10;84.80
50907;DHT22;36882;27.680;85.304;2022-07-01T02:53:47;30.70;86.80
50907;DHT22;36882;27.680;85.304;2022-07-01T02:56:17;30.80;88.40
50907;DHT22;36882;27.680;85.304;2022-07-01T02:59:03;30.90;87.30
50907;DHT22;36882;27.680;85.304;2022-07-01T03:01:34;30.80;86.00
50907;DHT22;36882;27.680;85.304;2022-07-01T03:04:04;30.90;88.20
50907;DHT22;36882;27.680;85.304;2022-07-01T03:06:35;31.10;86.50
50907;DHT22;36882;27.680;85.304;2022-07-01T03:09:06;31.30;85.30
50907;DHT22;36882;27.680;85.304;2022-07-01T03:11:37;31.30;86.80
50907;DHT22;36882;27.680;85.304;2022-07-01T03:14:07;31.40;85.00
50907;DHT22;36882;27.680;85.304;2022-07-01T03:16:38;31.30;86.00
50907;DHT22;36882;27.680;85.304;2022-07-01T03:19:08;31.40;87.30
50907;DHT22;36882;27.680;85.304;2022-07-01T03:21:39;31.50;84.60
50907;DHT22;36882;27.680;85.304;2022-07-01T03:24:10;31.50;86.00
50907;DHT22;36882;27.680;85.304;2022-07-01T03:26:41;31.50;84.50
50907;DHT22;36882;27.680;85.304;2022-07-01T03:29:12;31.30;86.20
50907;DHT22;36882;27.680;85.304;2022-07-01T03:31:42;31.20;84.90
50907;DHT22;36882;27.680;85.304;2022-07-01T03:34:13;31.20;85.20
50907;DHT22;36882;27.680;85.304;2022-07-01T03:36:44;31.00;83.70
50907;DHT22;36882;27.680;85.304;2022-07-01T03:39:14;30.90;85.40
50907;DHT22;36882;27.680;85.304;2022-07-01T03:41:45;30.80;86.90
50907;DHT22;36882;27.680;85.304;2022-07-01T03:44:15;30.90;85.30
50907;DHT22;36882;27.680;85.304;2022-07-01T03:46:46;30.70;85.20
50907;DHT22;36882;27.680;85.304;2022-07-01T03:49:17;30.80;86.10
50907;DHT22;36882;27.680;85.304;2022-07-01T03:51:48;30.90;84.60
50907;DHT22;36882;27.680;85.304;2022-07-01T03:54:19;30.90;82.20
50907;DHT22;36882;27.680;85.304;2022-07-01T03:57:05;30.70;83.50
50907;DHT22;36882;27.680;85.304;2022-07-01T03:59:39;30.90;85.20
50907;DHT22;36882;27.680;85.304;2022-07-01T04:02:10;30.90;83.40
50907;DHT22;36882;27.680;85.304;2022-07-01T04:04:41;31.10;83.90
50907;DHT22;36882;27.680;85.304;2022-07-01T04:07:11;31.30;84.10
50907;DHT22;36882;27.680;85.304;2022-07-01T04:09:42;31.40;85.00
50907;DHT22;36882;27.680;85.304;2022-07-01T04:12:13;31.40;83.90
50907;DHT22;36882;27.680;85.304;2022-07-01T04:14:44;31.50;84.40
50907;DHT22;36882;27.680;85.304;2022-07-01T04:17:16;31.50;85.30
50907;DHT22;36882;27.680;85.304;2022-07-01T04:19:47;31.60;84.70
50907;DHT22;36882;27.680;85.304;2022-07-01T04:22:19;31.70;82.50
50907;DHT22;36882;27.680;85.304;2022-07-01T04:25:06;31.60;83.70
50907;DHT22;36882;27.680;85.304;2022-07-01T04:27:37;31.80;84.70
50907;DHT22;36882;27.680;85.304;2022-07-01T04:30:07;31.80;84.40
50907;DHT22;36882;27.680;85.304;2022-07-01T04:32:38;31.90;85.50
50907;DHT22;36882;27.680;85.304;2022-07-01T04:35:09;31.90;85.70
50907;DHT22;36882;27.680;85.304;2022-07-01T04:37:42;31.90;85.00
50907;DHT22;36882;27.680;85.304;2022-07-01T04:40:12;31.80;85.10
50907;DHT22;36882;27.680;85.304;2022-07-01T04:42:44;31.80;86.30
50907;DHT22;36882;27.680;85.304;2022-07-01T04:45:14;31.80;86.10
50907;DHT22;36882;27.680;85.304;2022-07-01T04:47:46;31.80;85.00
50907;DHT22;36882;27.680;85.304;2022-07-01T04:50:18;31.80;84.30
50907;DHT22;36882;27.680;85.304;2022-07-01T04:52:50;31.80;85.60
50907;DHT22;36882;27.680;85.304;2022-07-01T04:55:25;31.80;86.70
50907;DHT22;36882;27.680;85.304;2022-07-01T04:57:55;31.90;87.30
50907;DHT22;36882;27.680;85.304;2022-07-01T05:00:26;32.00;84.40
50907;DHT22;36882;27.680;85.304;2022-07-01T05:02:57;32.00;82.80
50907;DHT22;36882;27.680;85.304;2022-07-01T05:05:28;32.00;82.50
50907;DHT22;36882;27.680;85.304;2022-07-01T05:08:00;32.00;82.50
50907;DHT22;36882;27.680;85.304;2022-07-01T05:10:34;32.10;82.70
50907;DHT22;36882;27.680;85.304;2022-07-01T05:13:16;32.10;84.30
50907;DHT22;36882;27.680;85.304;2022-07-01T05:15:49;32.10;83.50
50907;DHT22;36882;27.680;85.304;2022-07-01T05:18:20;32.20;82.80
50907;DHT22;36882;27.680;85.304;2022-07-01T05:21:09;32.30;82.70
50907;DHT22;36882;27.680;85.304;2022-07-01T05:23:58;32.30;83.50
50907;DHT22;36882;27.680;85.304;2022-07-01T05:26:28;32.30;83.50
50907;DHT22;36882;27.680;85.304;2022-07-01T05:28:59;32.30;83.30
50907;DHT22;36882;27.680;85.304;2022-07-01T05:31:30;32.30;82.90
50907;DHT22;36882;27.680;85.304;2022-07-01T05:34:03;32.30;82.90
50907;DHT22;36882;27.680;85.304;2022-07-01T05:36:36;32.20;83.40
50907;DHT22;36882;27.680;85.304;2022-07-01T05:39:16;32.10;83.90
50907;DHT22;36882;27.680;85.304;2022-07-01T05:41:48;32.00;84.70
50907;DHT22;36882;27.680;85.304;2022-07-01T05:44:22;31.90;84.90
50907;DHT22;36882;27.680;85.304;2022-07-01T05:46:56;31.80;84.50
50907;DHT22;36882;27.680;85.304;2022-07-01T05:49:31;31.80;84.80
50907;DHT22;36882;27.680;85.304;2022-07-01T05:52:12;31.70;84.50
50907;DHT22;36882;27.680;85.304;2022-07-01T05:54:43;31.60;85.50
50907;DHT22;36882;27.680;85.304;2022-07-01T05:57:18;31.60;84.40
50907;DHT22;36882;27.680;85.304;2022-07-01T05:59:54;31.70;84.80
50907;DHT22;36882;27.680;85.304;2022-07-01T06:02:29;31.70;85.00
50907;DHT22;36882;27.680;85.304;2022-07-01T06:05:04;31.70;84.20
50907;DHT22;36882;27.680;85.304;2022-07-01T06:07:35;31.60;85.40
50907;DHT22;36882;27.680;85.304;2022-07-01T06:10:11;31.60;85.90
50907;DHT22;36882;27.680;85.304;2022-07-01T06:12:45;31.60;83.50
50907;DHT22;36882;27.680;85.304;2022-07-01T06:15:18;31.60;84.00
50907;DHT22;36882;27.680;85.304;2022-07-01T06:17:49;31.60;85.30
50907;DHT22;36882;27.680;85.304;2022-07-01T06:20:24;31.60;86.10
50907;DHT22;36882;27.680;85.304;2022-07-01T06:22:56;31.60;85.60
50907;DHT22;36882;27.680;85.304;2022-07-01T06:25:44;31.80;84.60
50907;DHT22;36882;27.680;85.304;2022-07-01T06:28:16;31.90;84.40
50907;DHT22;36882;27.680;85.304;2022-07-01T06:30:49;32.00;81.80
50907;DHT22;36882;27.680;85.304;2022-07-01T06:33:19;32.10;83.40
50907;DHT22;36882;27.680;85.304;2022-07-01T06:35:50;32.20;83.60
50907;DHT22;36882;27.680;85.304;2022-07-01T06:38:21;32.30;82.60
50907;DHT22;36882;27.680;85.304;2022-07-01T06:40:58;32.40;82.10
50907;DHT22;36882;27.680;85.304;2022-07-01T06:43:56;32.50;82.60
50907;DHT22;36882;27.680;85.304;2022-07-01T06:46:28;32.60;83.20
50907;DHT22;36882;27.680;85.304;2022-07-01T06:48:59;32.60;83.40
50907;DHT22;36882;27.680;85.304;2022-07-01T06:51:30;32.70;82.90
50907;DHT22;36882;27.680;85.304;2022-07-01T06:54:01;32.60;83.00
50907;DHT22;36882;27.680;85.304;2022-07-01T06:56:32;32.60;83.40
50907;DHT22;36882;27.680;85.304;2022-07-01T06:59:03;32.50;83.50
50907;DHT22;36882;27.680;85.304;2022-07-01T07:01:36;32.40;84.10
50907;DHT22;36882;27.680;85.304;2022-07-01T07:04:07;32.30;83.10
50907;DHT22;36882;27.680;85.304;2022-07-01T07:06:41;32.20;84.10
50907;DHT22;36882;27.680;85.304;2022-07-01T07:09:14;32.20;84.10
50907;DHT22;36882;27.680;85.304;2022-07-01T07:11:46;32.20;83.80
50907;DHT22;36882;27.680;85.304;2022-07-01T07:14:16;32.20;83.30
50907;DHT22;36882;27.680;85.304;2022-07-01T07:16:47;32.20;83.60
50907;DHT22;36882;27.680;85.304;2022-07-01T07:19:18;32.20;83.20
50907;DHT22;36882;27.680;85.304;2022-07-01T07:21:53;32.20;82.70
50907;DHT22;36882;27.680;85.304;2022-07-01T07:24:25;32.20;83.00
50907;DHT22;36882;27.680;85.304;2022-07-01T07:26:55;32.20;82.90
50907;DHT22;36882;27.680;85.304;2022-07-01T07:29:26;32.10;82.70
50907;DHT22;36882;27.680;85.304;2022-07-01T07:31:57;32.00;82.90
50907;DHT22;36882;27.680;85.304;2022-07-01T07:34:31;32.00;83.40
50907;DHT22;36882;27.680;85.304;2022-07-01T07:37:05;31.80;84.70
50907;DHT22;36882;27.680;85.304;2022-07-01T07:39:38;31.70;84.50
50907;DHT22;36882;27.680;85.304;2022-07-01T07:42:09;31.70;85.30
50907;DHT22;36882;27.680;85.304;2022-07-01T07:44:39;31.70;85.60
50907;DHT22;36882;27.680;85.304;2022-07-01T07:47:11;31.80;83.60
50907;DHT22;36882;27.680;85.304;2022-07-01T07:49:41;31.90;83.80
50907;DHT22;36882;27.680;85.304;2022-07-01T07:52:12;32.00;82.80
50907;DHT22;36882;27.680;85.304;2022-07-01T07:54:43;32.00;83.50
50907;DHT22;36882;27.680;85.304;2022-07-01T07:57:13;32.00;82.50
50907;DHT22;36882;27.680;85.304;2022-07-01T07:59:44;32.10;82.20
50907;DHT22;36882;27.680;85.304;2022-07-01T08:02:14;32.10;81.20
50907;DHT22;36882;27.680;85.304;2022-07-01T08:04:51;32.10;83.60
50907;DHT22;36882;27.680;85.304;2022-07-01T08:07:22;32.20;83.10
50907;DHT22;36882;27.680;85.304;2022-07-01T08:10:11;32.30;83.10
50907;DHT22;36882;27.680;85.304;2022-07-01T08:12:42;32.30;83.00
50907;DHT22;36882;27.680;85.304;2022-07-01T08:15:12;32.40;82.70
50907;DHT22;36882;27.680;85.304;2022-07-01T08:17:43;32.50;83.10
50907;DHT22;36882;27.680;85.304;2022-07-01T08:20:14;32.50;81.50
50907;DHT22;36882;27.680;85.304;2022-07-01T08:22:49;32.50;82.30
50907;DHT22;36882;27.680;85.304;2022-07-01T08:25:20;32.40;82.90
50907;DHT22;36882;27.680;85.304;2022-07-01T08:27:51;32.30;82.80
50907;DHT22;36882;27.680;85.304;2022-07-01T08:30:22;32.30;83.00
50907;DHT22;36882;27.680;85.304;2022-07-01T08:32:52;32.30;82.40
50907;DHT22;36882;27.680;85.304;2022-07-01T08:35:23;32.40;83.50
50907;DHT22;36882;27.680;85.304;2022-07-01T08:37:54;32.40;80.20
50907;DHT22;36882;27.680;85.304;2022-07-01T08:40:28;32.40;80.60
50907;DHT22;36882;27.680;85.304;2022-07-01T08:43:02;32.40;80.20
50907;DHT22;36882;27.680;85.304;2022-07-01T08:45:35;32.30;82.40
50907;DHT22;36882;27.680;85.304;2022-07-01T08:48:07;32.40;81.40
50907;DHT22;36882;27.680;85.304;2022-07-01T08:50:39;32.40;81.00
50907;DHT22;36882;27.680;85.304;2022-07-01T08:53:12;32.50;81.50
50907;DHT22;36882;27.680;85.304;2022-07-01T08:55:42;32.50;80.90
50907;DHT22;36882;27.680;85.304;2022-07-01T08:58:28;32.60;81.80
50907;DHT22;36882;27.680;85.304;2022-07-01T09:01:19;32.70;80.20
50907;DHT22;36882;27.680;85.304;2022-07-01T09:03:53;32.80;81.50
50907;DHT22;36882;27.680;85.304;2022-07-01T09:06:27;32.80;81.90
50907;DHT22;36882;27.680;85.304;2022-07-01T09:09:12;32.60;82.80
50907;DHT22;36882;27.680;85.304;2022-07-01T09:11:47;32.60;82.40
50907;DHT22;36882;27.680;85.304;2022-07-01T09:14:25;32.60;82.20
50907;DHT22;36882;27.680;85.304;2022-07-01T09:17:00;32.70;82.30
50907;DHT22;36882;27.680;85.304;2022-07-01T09:19:35;32.80;82.80
50907;DHT22;36882;27.680;85.304;2022-07-01T09:22:13;32.80;81.70
50907;DHT22;36882;27.680;85.304;2022-07-01T09:24:43;32.90;82.30
50907;DHT22;36882;27.680;85.304;2022-07-01T09:27:15;32.80;83.40
50907;DHT22;36882;27.680;85.304;2022-07-01T09:29:51;32.80;83.90
50907;DHT22;36882;27.680;85.304;2022-07-01T09:32:25;32.80;84.40
50907;DHT22;36882;27.680;85.304;2022-07-01T09:34:56;32.80;83.80
50907;DHT22;36882;27.680;85.304;2022-07-01T09:37:26;32.90;83.00
50907;DHT22;36882;27.680;85.304;2022-07-01T09:39:58;32.90;83.70
50907;DHT22;36882;27.680;85.304;2022-07-01T09:42:28;33.00;84.10
50907;DHT22;36882;27.680;85.304;2022-07-01T09:45:04;33.00;83.60
50907;DHT22;36882;27.680;85.304;2022-07-01T09:47:41;33.00;82.70
50907;DHT22;36882;27.680;85.304;2022-07-01T09:50:13;33.00;82.80
50907;DHT22;36882;27.680;85.304;2022-07-01T09:52:44;33.00;82.40
50907;DHT22;36882;27.680;85.304;2022-07-01T09:55:15;32.90;81.30
50907;DHT22;36882;27.680;85.304;2022-07-01T09:57:45;32.90;81.30
50907;DHT22;36882;27.680;85.304;2022-07-01T10:00:16;32.80;79.90
50907;DHT22;36882;27.680;85.304;2022-07-01T10:03:05;32.80;81.60
50907;DHT22;36882;27.680;85.304;2022-07-01T10:05:49;32.80;81.70
50907;DHT22;36882;27.680;85.304;2022-07-01T10:08:42;32.80;81.10
50907;DHT22;36882;27.680;85.304;2022-07-01T10:11:49;32.70;79.60
50907;DHT22;36882;27.680;85.304;2022-07-01T10:14:23;32.70;79.40
50907;DHT22;36882;27.680;85.304;2022-07-01T10:16:53;32.60;80.00
50907;DHT22;36882;27.680;85.304;2022-07-01T10:19:26;32.60;80.50
50907;DHT22;36882;27.680;85.304;2022-07-01T10:22:01;32.60;80.50
50907;DHT22;36882;27.680;85.304;2022-07-01T10:24:50;32.60;81.20
50907;DHT22;36882;27.680;85.304;2022-07-01T10:27:23;32.50;82.50
50907;DHT22;36882;27.680;85.304;2022-07-01T10:30:14;32.50;80.70
50907;DHT22;36882;27.680;85.304;2022-07-01T10:32:49;32.40;82.10
50907;DHT22;36882;27.680;85.304;2022-07-01T10:35:36;32.40;83.00
50907;DHT22;36882;27.680;85.304;2022-07-01T10:38:11;32.40;82.60
50907;DHT22;36882;27.680;85.304;2022-07-01T10:40:49;32.50;82.40
50907;DHT22;36882;27.680;85.304;2022-07-01T10:43:36;32.40;82.40
50907;DHT22;36882;27.680;85.304;2022-07-01T10:46:08;32.40;81.50
50907;DHT22;36882;27.680;85.304;2022-07-01T10:48:39;32.40;81.20
50907;DHT22;36882;27.680;85.304;2022-07-01T10:51:42;32.40;82.60
50907;DHT22;36882;27.680;85.304;2022-07-01T10:54:13;32.30;79.70
50907;DHT22;36882;27.680;85.304;2022-07-01T10:56:44;32.30;80.30
50907;DHT22;36882;27.680;85.304;2022-07-01T10:59:19;32.30;80.50
50907;DHT22;36882;27.680;85.304;2022-07-01T11:01:52;32.40;81.60
50907;DHT22;36882;27.680;85.304;2022-07-01T11:04:23;32.30;80.10
50907;DHT22;36882;27.680;85.304;2022-07-01T11:06:54;32.20;80.90
50907;DHT22;36882;27.680;85.304;2022-07-01T11:09:25;32.20;82.50
50907;DHT22;36882;27.680;85.304;2022-07-01T11:11:56;32.20;82.20
50907;DHT22;36882;27.680;85.304;2022-07-01T11:14:27;32.10;83.20
50907;DHT22;36882;27.680;85.304;2022-07-01T11:17:01;32.00;83.70
50907;DHT22;36882;27.680;85.304;2022-07-01T11:19:32;31.90;83.20
50907;DHT22;36882;27.680;85.304;2022-07-01T11:22:03;31.70;82.80
50907;DHT22;36882;27.680;85.304;2022-07-01T11:24:35;31.60;84.10
50907;DHT22;36882;27.680;85.304;2022-07-01T11:27:07;31.60;84.30
50907;DHT22;36882;27.680;85.304;2022-07-01T11:29:38;31.60;82.90
50907;DHT22;36882;27.680;85.304;2022-07-01T11:32:09;31.60;82.30
50907;DHT22;36882;27.680;85.304;2022-07-01T11:34:40;31.60;83.40
50907;DHT22;36882;27.680;85.304;2022-07-01T11:37:11;31.50;82.80
50907;DHT22;36882;27.680;85.304;2022-07-01T11:40:14;31.50;83.80
50907;DHT22;36882;27.680;85.304;2022-07-01T11:42:45;31.50;83.80
50907;DHT22;36882;27.680;85.304;2022-07-01T11:45:25;31.50;83.10
50907;DHT22;36882;27.680;85.304;2022-07-01T11:47:56;31.40;84.60
50907;DHT22;36882;27.680;85.304;2022-07-01T11:50:27;31.40;83.90
50907;DHT22;36882;27.680;85.304;2022-07-01T11:52:58;31.40;84.10
50907;DHT22;36882;27.680;85.304;2022-07-01T11:55:29;31.40;83.20
50907;DHT22;36882;27.680;85.304;2022-07-01T11:58:04;31.40;82.30
50907;DHT22;36882;27.680;85.304;2022-07-01T12:00:35;31.30;82.90
50907;DHT22;36882;27.680;85.304;2022-07-01T12:03:07;31.30;82.80
50907;DHT22;36882;27.680;85.304;2022-07-01T12:05:40;31.20;83.50
50907;DHT22;36882;27.680;85.304;2022-07-01T12:08:10;31.10;84.20
50907;DHT22;36882;27.680;85.304;2022-07-01T12:10:41;31.00;84.40
50907;DHT22;36882;27.680;85.304;2022-07-01T12:13:34;30.90;83.70
50907;DHT22;36882;27.680;85.304;2022-07-01T12:16:08;30.80;85.60
50907;DHT22;36882;27.680;85.304;2022-07-01T12:18:50;30.80;85.20
50907;DHT22;36882;27.680;85.304;2022-07-01T12:21:21;30.80;85.70
50907;DHT22;36882;27.680;85.304;2022-07-01T12:24:10;30.80;85.80
50907;DHT22;36882;27.680;85.304;2022-07-01T12:26:50;30.80;85.30
50907;DHT22;36882;27.680;85.304;2022-07-01T12:29:23;30.80;85.60
50907;DHT22;36882;27.680;85.304;2022-07-01T12:32:04;30.70;86.60
50907;DHT22;36882;27.680;85.304;2022-07-01T12:34:43;30.70;87.30
50907;DHT22;36882;27.680;85.304;2022-07-01T12:37:18;30.60;87.70
50907;DHT22;36882;27.680;85.304;2022-07-01T12:39:51;30.60;88.80
50907;DHT22;36882;27.680;85.304;2022-07-01T12:45:14;30.50;89.80
50907;DHT22;36882;27.680;85.304;2022-07-01T12:47:48;30.50;90.00
50907;DHT22;36882;27.680;85.304;2022-07-01T12:50:22;30.40;89.80
50907;DHT22;36882;27.680;85.304;2022-07-01T12:53:03;30.30;90.10
50907;DHT22;36882;27.680;85.304;2022-07-01T12:55:40;30.30;90.20
50907;DHT22;36882;27.680;85.304;2022-07-01T12:58:16;30.30;90.00
50907;DHT22;36882;27.680;85.304;2022-07-01T13:00:50;30.10;90.40
50907;DHT22;36882;27.680;85.304;2022-07-01T13:03:24;30.10;90.30
50907;DHT22;36882;27.680;85.304;2022-07-01T13:05:58;30.00;90.60
50907;DHT22;36882;27.680;85.304;2022-07-01T13:08:44;30.00;90.50
50907;DHT22;36882;27.680;85.304;2022-07-01T13:11:15;29.90;90.80
50907;DHT22;36882;27.680;85.304;2022-07-01T13:13:46;29.80;90.90
50907;DHT22;36882;27.680;85.304;2022-07-01T13:16:16;29.70;91.10
50907;DHT22;36882;27.680;85.304;2022-07-01T13:18:47;29.70;91.30
50907;DHT22;36882;27.680;85.304;2022-07-01T13:21:18;29.60;91.10
50907;DHT22;36882;27.680;85.304;2022-07-01T13:23:48;29.60;91.60
50907;DHT22;36882;27.680;85.304;2022-07-01T13:26:40;29.50;91.50
50907;DHT22;36882;27.680;85.304;2022-07-01T13:29:11;29.50;91.70
50907;DHT22;36882;27.680;85.304;2022-07-01T13:31:42;29.50;91.80
50907;DHT22;36882;27.680;85.304;2022-07-01T13:34:13;29.40;91.90
50907;DHT22;36882;27.680;85.304;2022-07-01T13:36:44;29.30;91.80
50907;DHT22;36882;27.680;85.304;2022-07-01T13:39:17;29.30;92.10
50907;DHT22;36882;27.680;85.304;2022-07-01T13:41:49;29.20;92.30
50907;DHT22;36882;27.680;85.304;2022-07-01T13:44:20;29.20;92.30
50907;DHT22;36882;27.680;85.304;2022-07-01T13:46:51;29.20;92.60
50907;DHT22;36882;27.680;85.304;2022-07-01T13:49:22;29.20;92.30
50907;DHT22;36882;27.680;85.304;2022-07-01T13:51:53;29.10;92.50
50907;DHT22;36882;27.680;85.304;2022-07-01T13:54:39;29.00;92.20
50907;DHT22;36882;27.680;85.304;2022-07-01T13:57:10;29.00;92.30
50907;DHT22;36882;27.680;85.304;2022-07-01T13:59:40;29.00;92.50
50907;DHT22;36882;27.680;85.304;2022-07-01T14:02:12;29.00;92.60
50907;DHT22;36882;27.680;85.304;2022-07-01T14:04:44;29.00;92.60
50907;DHT22;36882;27.680;85.304;2022-07-01T14:07:14;29.00;92.60
50907;DHT22;36882;27.680;85.304;2022-07-01T14:09:45;28.90;92.90
50907;DHT22;36882;27.680;85.304;2022-07-01T14:12:32;28.90;93.20
50907;DHT22;36882;27.680;85.304;2022-07-01T14:15:05;28.90;93.40
50907;DHT22;36882;27.680;85.304;2022-07-01T14:17:36;28.80;93.20
50907;DHT22;36882;27.680;85.304;2022-07-01T14:20:07;28.90;93.10
50907;DHT22;36882;27.680;85.304;2022-07-01T14:22:39;28.90;93.30
50907;DHT22;36882;27.680;85.304;2022-07-01T14:25:10;28.80;93.10
50907;DHT22;36882;27.680;85.304;2022-07-01T14:27:41;28.80;93.00
50907;DHT22;36882;27.680;85.304;2022-07-01T14:30:12;28.80;93.00
50907;DHT22;36882;27.680;85.304;2022-07-01T14:32:43;28.80;92.70
50907;DHT22;36882;27.680;85.304;2022-07-01T14:35:14;28.80;93.10
50907;DHT22;36882;27.680;85.304;2022-07-01T14:37:44;28.70;93.00
50907;DHT22;36882;27.680;85.304;2022-07-01T14:40:15;28.70;93.00
50907;DHT22;36882;27.680;85.304;2022-07-01T14:42:46;28.70;93.10
50907;DHT22;36882;27.680;85.304;2022-07-01T14:45:17;28.70;93.50
50907;DHT22;36882;27.680;85.304;2022-07-01T14:47:47;28.60;93.40
50907;DHT22;36882;27.680;85.304;2022-07-01T14:50:21;28.60;93.60
50907;DHT22;36882;27.680;85.304;2022-07-01T14:52:51;28.50;93.50
50907;DHT22;36882;27.680;85.304;2022-07-01T14:55:22;28.50;93.60
50907;DHT22;36882;27.680;85.304;2022-07-01T14:57:53;28.60;93.60
50907;DHT22;36882;27.680;85.304;2022-07-01T15:00:24;28.50;93.50
50907;DHT22;36882;27.680;85.304;2022-07-01T15:02:55;28.50;93.60
50907;DHT22;36882;27.680;85.304;2022-07-01T15:05:26;28.40;94.10
50907;DHT22;36882;27.680;85.304;2022-07-01T15:07:57;28.40;93.90
50907;DHT22;36882;27.680;85.304;2022-07-01T15:10:27;28.40;93.80
50907;DHT22;36882;27.680;85.304;2022-07-01T15:12:58;28.50;93.80
50907;DHT22;36882;27.680;85.304;2022-07-01T15:15:28;28.50;94.00
50907;DHT22;36882;27.680;85.304;2022-07-01T15:18:00;28.50;93.90
50907;DHT22;36882;27.680;85.304;2022-07-01T15:20:45;28.50;93.90
50907;DHT22;36882;27.680;85.304;2022-07-01T15:23:16;28.40;94.10
50907;DHT22;36882;27.680;85.304;2022-07-01T15:25:47;28.40;94.30
50907;DHT22;36882;27.680;85.304;2022-07-01T15:28:18;28.40;94.00
50907;DHT22;36882;27.680;85.304;2022-07-01T15:30:48;28.40;93.90
50907;DHT22;36882;27.680;85.304;2022-07-01T15:33:21;28.40;94.20
50907;DHT22;36882;27.680;85.304;2022-07-01T15:35:51;28.40;94.30
50907;DHT22;36882;27.680;85.304;2022-07-01T15:38:22;28.30;94.20
50907;DHT22;36882;27.680;85.304;2022-07-01T15:40:54;28.30;94.00
50907;DHT22;36882;27.680;85.304;2022-07-01T15:43:25;28.30;94.20
50907;DHT22;36882;27.680;85.304;2022-07-01T15:45:57;28.30;93.90
50907;DHT22;36882;27.680;85.304;2022-07-01T15:48:28;28.40;94.00
50907;DHT22;36882;27.680;85.304;2022-07-01T15:50:58;28.40;93.90
50907;DHT22;36882;27.680;85.304;2022-07-01T15:53:29;28.40;93.80
50907;DHT22;36882;27.680;85.304;2022-07-01T15:56:01;28.40;93.90